sensor_id;sensor_type;location;lat;lon;timestamp;P1;durP1;ratioP1;P2;durP2;ratioP2
12654;SDS011;6392;44.644;11.448;2022-10-31T00:00:05;8.70;;;6.03;;
12654;SDS011;6392;44.644;11.448;2022-10-31T00:02:34;12.30;;;5.90;;
12654;SDS011;6392;44.644;11.448;2022-10-31T00:05:01;9.90;;;6.30;;
12654;SDS011;6392;44.644;11.448;2022-10-31T00:07:28;10.23;;;6.27;;
12654;SDS011;6392;44.644;11.448;2022-10-31T00:09:55;10.27;;;5.53;;
12654;SDS011;6392;44.644;11.448;2022-10-31T00:12:22;10.93;;;5.83;;
12654;SDS011;6392;44.644;11.448;2022-10-31T00:14:50;11.33;;;5.73;;
12654;SDS011;6392;44.644;11.448;2022-10-31T00:17:17;7.47;;;4.93;;
12654;SDS011;6392;44.644;11.448;2022-10-31T00:19:45;11.27;;;5.70;;
12654;SDS011;6392;44.644;11.448;2022-10-31T00:22:12;9.20;;;5.77;;
12654;SDS011;6392;44.644;11.448;2022-10-31T00:24:38;9.20;;;6.20;;
12654;SDS011;6392;44.644;11.448;2022-10-31T00:27:05;13.00;;;6.10;;
12654;SDS011;6392;44.644;11.448;2022-10-31T00:29:32;9.77;;;5.90;;
12654;SDS011;6392;44.644;11.448;2022-10-31T00:32:01;10.70;;;5.93;;
12654;SDS011;6392;44.644;11.448;2022-10-31T00:34:28;7.23;;;5.37;;
12654;SDS011;6392;44.644;11.448;2022-10-31T00:36:55;13.43;;;6.13;;
12654;SDS011;6392;44.644;11.448;2022-10-31T00:39:22;10.67;;;6.23;;
12654;SDS011;6392;44.644;11.448;2022-10-31T00:41:49;10.50;;;5.27;;
12654;SDS011;6392;44.644;11.448;2022-10-31T00:44:16;10.97;;;6.17;;
12654;SDS011;6392;44.644;11.448;2022-10-31T00:46:43;9.57;;;4.83;;
12654;SDS011;6392;44.644;11.448;2022-10-31T00:49:12;10.60;;;6.57;;
12654;SDS011;6392;44.644;11.448;2022-10-31T00:51:39;10.37;;;5.30;;
12654;SDS011;6392;44.644;11.448;2022-10-31T00:54:06;9.77;;;6.47;;
12654;SDS011;6392;44.644;11.448;2022-10-31T00:56:33;9.47;;;5.57;;
12654;SDS011;6392;44.644;11.448;2022-10-31T00:59:00;11.03;;;6.77;;
12654;SDS011;6392;44.644;11.448;2022-10-31T01:01:27;12.20;;;6.17;;
12654;SDS011;6392;44.644;11.448;2022-10-31T01:03:54;8.83;;;6.10;;
12654;SDS011;6392;44.644;11.448;2022-10-31T01:06:22;10.03;;;6.40;;
12654;SDS011;6392;44.644;11.448;2022-10-31T01:08:49;8.73;;;6.03;;
12654;SDS011;6392;44.644;11.448;2022-10-31T01:11:17;9.73;;;5.60;;
12654;SDS011;6392;44.644;11.448;2022-10-31T01:13:45;10.90;;;5.47;;
12654;SDS011;6392;44.644;11.448;2022-10-31T01:16:13;8.53;;;5.50;;
12654;SDS011;6392;44.644;11.448;2022-10-31T01:18:42;9.30;;;5.40;;
12654;SDS011;6392;44.644;11.448;2022-10-31T01:21:09;6.77;;;4.73;;
12654;SDS011;6392;44.644;11.448;2022-10-31T01:23:39;7.60;;;5.00;;
12654;SDS011;6392;44.644;11.448;2022-10-31T01:26:08;9.03;;;5.00;;
12654;SDS011;6392;44.644;11.448;2022-10-31T01:28:38;8.93;;;5.50;;
12654;SDS011;6392;44.644;11.448;2022-10-31T01:31:09;9.27;;;5.00;;
12654;SDS011;6392;44.644;11.448;2022-10-31T01:33:36;12.03;;;5.27;;
12654;SDS011;6392;44.644;11.448;2022-10-31T01:36:10;9.10;;;5.20;;
12654;SDS011;6392;44.644;11.448;2022-10-31T01:38:40;9.43;;;5.47;;
12654;SDS011;6392;44.644;11.448;2022-10-31T01:41:07;8.60;;;5.67;;
12654;SDS011;6392;44.644;11.448;2022-10-31T01:43:46;11.37;;;5.50;;
12654;SDS011;6392;44.644;11.448;2022-10-31T01:46:15;10.67;;;5.20;;
12654;SDS011;6392;44.644;11.448;2022-10-31T01:48:45;11.73;;;5.30;;
12654;SDS011;6392;44.644;11.448;2022-10-31T01:51:13;8.30;;;5.37;;
12654;SDS011;6392;44.644;11.448;2022-10-31T01:53:44;8.30;;;5.50;;
12654;SDS011;6392;44.644;11.448;2022-10-31T01:56:12;8.87;;;5.00;;
12654;SDS011;6392;44.644;11.448;2022-10-31T01:58:41;7.60;;;5.10;;
12654;SDS011;6392;44.644;11.448;2022-10-31T02:01:11;10.87;;;6.00;;
12654;SDS011;6392;44.644;11.448;2022-10-31T02:03:40;10.03;;;5.80;;
12654;SDS011;6392;44.644;11.448;2022-10-31T02:06:08;10.43;;;6.10;;
12654;SDS011;6392;44.644;11.448;2022-10-31T02:08:40;6.87;;;4.73;;
12654;SDS011;6392;44.644;11.448;2022-10-31T02:11:10;9.27;;;5.17;;
12654;SDS011;6392;44.644;11.448;2022-10-31T02:13:37;10.23;;;5.67;;
12654;SDS011;6392;44.644;11.448;2022-10-31T02:16:05;11.10;;;5.57;;
12654;SDS011;6392;44.644;11.448;2022-10-31T02:18:32;10.33;;;5.60;;
12654;SDS011;6392;44.644;11.448;2022-10-31T02:21:02;8.23;;;5.40;;
12654;SDS011;6392;44.644;11.448;2022-10-31T02:26:57;8.70;;;5.13;;
12654;SDS011;6392;44.644;11.448;2022-10-31T02:32:40;8.20;;;5.23;;
12654;SDS011;6392;44.644;11.448;2022-10-31T02:35:25;8.37;;;5.20;;
12654;SDS011;6392;44.644;11.448;2022-10-31T02:38:03;9.73;;;5.77;;
12654;SDS011;6392;44.644;11.448;2022-10-31T02:40:36;8.67;;;5.37;;
12654;SDS011;6392;44.644;11.448;2022-10-31T02:43:12;8.17;;;4.80;;
12654;SDS011;6392;44.644;11.448;2022-10-31T02:45:44;12.50;;;5.60;;
12654;SDS011;6392;44.644;11.448;2022-10-31T02:48:18;8.93;;;5.30;;
12654;SDS011;6392;44.644;11.448;2022-10-31T02:50:48;9.70;;;5.10;;
12654;SDS011;6392;44.644;11.448;2022-10-31T02:53:20;9.00;;;5.00;;
12654;SDS011;6392;44.644;11.448;2022-10-31T02:55:51;9.20;;;5.27;;
12654;SDS011;6392;44.644;11.448;2022-10-31T02:58:24;8.03;;;5.30;;
12654;SDS011;6392;44.644;11.448;2022-10-31T03:00:58;9.27;;;5.40;;
12654;SDS011;6392;44.644;11.448;2022-10-31T03:03:39;9.53;;;5.23;;
12654;SDS011;6392;44.644;11.448;2022-10-31T03:06:16;10.03;;;5.60;;
12654;SDS011;6392;44.644;11.448;2022-10-31T03:08:47;7.73;;;5.10;;
12654;SDS011;6392;44.644;11.448;2022-10-31T03:11:21;7.27;;;5.10;;
12654;SDS011;6392;44.644;11.448;2022-10-31T03:13:56;7.53;;;4.50;;
12654;SDS011;6392;44.644;11.448;2022-10-31T03:16:29;8.27;;;4.90;;
12654;SDS011;6392;44.644;11.448;2022-10-31T03:19:06;10.65;;;4.90;;
12654;SDS011;6392;44.644;11.448;2022-10-31T03:21:38;10.13;;;5.30;;
12654;SDS011;6392;44.644;11.448;2022-10-31T03:24:10;10.60;;;4.73;;
12654;SDS011;6392;44.644;11.448;2022-10-31T03:26:40;9.90;;;5.30;;
12654;SDS011;6392;44.644;11.448;2022-10-31T03:29:10;10.87;;;5.27;;
12654;SDS011;6392;44.644;11.448;2022-10-31T03:31:40;8.40;;;4.97;;
12654;SDS011;6392;44.644;11.448;2022-10-31T03:34:13;7.83;;;5.80;;
12654;SDS011;6392;44.644;11.448;2022-10-31T03:36:42;8.80;;;4.83;;
12654;SDS011;6392;44.644;11.448;2022-10-31T03:39:12;7.97;;;4.87;;
12654;SDS011;6392;44.644;11.448;2022-10-31T03:41:43;8.23;;;5.33;;
12654;SDS011;6392;44.644;11.448;2022-10-31T03:44:14;6.60;;;4.93;;
12654;SDS011;6392;44.644;11.448;2022-10-31T03:46:45;9.57;;;5.27;;
12654;SDS011;6392;44.644;11.448;2022-10-31T03:49:14;5.77;;;4.40;;
12654;SDS011;6392;44.644;11.448;2022-10-31T03:51:42;8.23;;;5.10;;
12654;SDS011;6392;44.644;11.448;2022-10-31T03:54:15;10.37;;;4.87;;
12654;SDS011;6392;44.644;11.448;2022-10-31T03:56:48;7.07;;;4.53;;
12654;SDS011;6392;44.644;11.448;2022-10-31T03:59:19;8.47;;;5.10;;
12654;SDS011;6392;44.644;11.448;2022-10-31T04:01:51;8.30;;;5.10;;
12654;SDS011;6392;44.644;11.448;2022-10-31T04:04:23;8.43;;;5.10;;
12654;SDS011;6392;44.644;11.448;2022-10-31T04:06:51;7.93;;;5.13;;
12654;SDS011;6392;44.644;11.448;2022-10-31T04:09:20;8.13;;;5.10;;
12654;SDS011;6392;44.644;11.448;2022-10-31T04:11:50;7.50;;;5.20;;
12654;SDS011;6392;44.644;11.448;2022-10-31T04:14:20;8.77;;;5.27;;
12654;SDS011;6392;44.644;11.448;2022-10-31T04:16:48;8.03;;;5.10;;
12654;SDS011;6392;44.644;11.448;2022-10-31T04:19:15;8.03;;;5.60;;
12654;SDS011;6392;44.644;11.448;2022-10-31T04:21:44;7.63;;;4.97;;
12654;SDS011;6392;44.644;11.448;2022-10-31T04:24:11;8.43;;;4.90;;
12654;SDS011;6392;44.644;11.448;2022-10-31T04:26:38;7.43;;;4.87;;
12654;SDS011;6392;44.644;11.448;2022-10-31T04:29:05;8.77;;;4.93;;
12654;SDS011;6392;44.644;11.448;2022-10-31T04:31:32;8.33;;;4.80;;
12654;SDS011;6392;44.644;11.448;2022-10-31T04:33:59;9.13;;;5.43;;
12654;SDS011;6392;44.644;11.448;2022-10-31T04:36:26;9.33;;;5.57;;
12654;SDS011;6392;44.644;11.448;2022-10-31T04:38:55;7.93;;;5.43;;
12654;SDS011;6392;44.644;11.448;2022-10-31T04:41:22;8.17;;;5.33;;
12654;SDS011;6392;44.644;11.448;2022-10-31T04:43:49;10.33;;;5.43;;
12654;SDS011;6392;44.644;11.448;2022-10-31T04:46:16;7.80;;;5.37;;
12654;SDS011;6392;44.644;11.448;2022-10-31T04:48:43;8.20;;;5.17;;
12654;SDS011;6392;44.644;11.448;2022-10-31T04:51:10;9.70;;;5.27;;
12654;SDS011;6392;44.644;11.448;2022-10-31T04:53:37;8.33;;;5.20;;
12654;SDS011;6392;44.644;11.448;2022-10-31T04:56:06;7.60;;;4.83;;
12654;SDS011;6392;44.644;11.448;2022-10-31T04:58:33;10.63;;;5.37;;
12654;SDS011;6392;44.644;11.448;2022-10-31T05:01:00;8.13;;;4.77;;
12654;SDS011;6392;44.644;11.448;2022-10-31T05:03:27;8.67;;;4.90;;
12654;SDS011;6392;44.644;11.448;2022-10-31T05:05:54;8.50;;;5.00;;
12654;SDS011;6392;44.644;11.448;2022-10-31T05:08:21;7.07;;;4.83;;
12654;SDS011;6392;44.644;11.448;2022-10-31T05:10:48;7.17;;;4.50;;
12654;SDS011;6392;44.644;11.448;2022-10-31T05:13:17;8.83;;;4.30;;
12654;SDS011;6392;44.644;11.448;2022-10-31T05:15:44;7.67;;;4.50;;
12654;SDS011;6392;44.644;11.448;2022-10-31T05:18:11;8.20;;;5.37;;
12654;SDS011;6392;44.644;11.448;2022-10-31T05:20:38;5.77;;;4.60;;
12654;SDS011;6392;44.644;11.448;2022-10-31T05:23:05;9.27;;;4.93;;
12654;SDS011;6392;44.644;11.448;2022-10-31T05:25:32;8.97;;;4.53;;
12654;SDS011;6392;44.644;11.448;2022-10-31T05:27:59;6.20;;;4.50;;
12654;SDS011;6392;44.644;11.448;2022-10-31T05:30:28;11.53;;;5.10;;
12654;SDS011;6392;44.644;11.448;2022-10-31T05:32:58;6.70;;;4.60;;
12654;SDS011;6392;44.644;11.448;2022-10-31T05:35:26;8.73;;;4.60;;
12654;SDS011;6392;44.644;11.448;2022-10-31T05:37:54;8.77;;;4.73;;
12654;SDS011;6392;44.644;11.448;2022-10-31T05:40:22;8.07;;;4.60;;
12654;SDS011;6392;44.644;11.448;2022-10-31T05:42:50;8.70;;;5.53;;
12654;SDS011;6392;44.644;11.448;2022-10-31T05:45:19;12.07;;;5.23;;
12654;SDS011;6392;44.644;11.448;2022-10-31T05:47:52;8.10;;;5.30;;
12654;SDS011;6392;44.644;11.448;2022-10-31T05:50:20;8.17;;;5.13;;
12654;SDS011;6392;44.644;11.448;2022-10-31T05:52:53;7.30;;;4.33;;
12654;SDS011;6392;44.644;11.448;2022-10-31T05:55:20;9.63;;;4.93;;
12654;SDS011;6392;44.644;11.448;2022-10-31T05:57:47;10.97;;;5.67;;
12654;SDS011;6392;44.644;11.448;2022-10-31T06:00:14;8.93;;;5.37;;
12654;SDS011;6392;44.644;11.448;2022-10-31T06:02:42;6.87;;;4.97;;
12654;SDS011;6392;44.644;11.448;2022-10-31T06:05:10;9.60;;;5.57;;
12654;SDS011;6392;44.644;11.448;2022-10-31T06:07:37;7.40;;;5.10;;
12654;SDS011;6392;44.644;11.448;2022-10-31T06:10:05;9.33;;;4.83;;
12654;SDS011;6392;44.644;11.448;2022-10-31T06:12:33;14.07;;;5.60;;
12654;SDS011;6392;44.644;11.448;2022-10-31T06:15:03;9.90;;;5.67;;
12654;SDS011;6392;44.644;11.448;2022-10-31T06:17:31;10.10;;;5.07;;
12654;SDS011;6392;44.644;11.448;2022-10-31T06:19:58;7.57;;;4.90;;
12654;SDS011;6392;44.644;11.448;2022-10-31T06:22:26;11.77;;;5.30;;
12654;SDS011;6392;44.644;11.448;2022-10-31T06:24:54;8.43;;;4.93;;
12654;SDS011;6392;44.644;11.448;2022-10-31T06:27:21;11.53;;;6.17;;
12654;SDS011;6392;44.644;11.448;2022-10-31T06:29:48;10.97;;;4.93;;
12654;SDS011;6392;44.644;11.448;2022-10-31T06:32:15;7.93;;;5.03;;
12654;SDS011;6392;44.644;11.448;2022-10-31T06:34:43;7.40;;;4.97;;
12654;SDS011;6392;44.644;11.448;2022-10-31T06:37:13;7.33;;;5.10;;
12654;SDS011;6392;44.644;11.448;2022-10-31T06:39:42;8.40;;;4.60;;
12654;SDS011;6392;44.644;11.448;2022-10-31T06:42:09;11.70;;;5.47;;
12654;SDS011;6392;44.644;11.448;2022-10-31T06:44:36;10.20;;;5.00;;
12654;SDS011;6392;44.644;11.448;2022-10-31T06:47:03;9.43;;;5.07;;
12654;SDS011;6392;44.644;11.448;2022-10-31T06:49:32;10.33;;;5.47;;
12654;SDS011;6392;44.644;11.448;2022-10-31T06:51:59;6.97;;;4.87;;
12654;SDS011;6392;44.644;11.448;2022-10-31T06:54:26;7.70;;;4.80;;
12654;SDS011;6392;44.644;11.448;2022-10-31T06:56:54;8.77;;;5.43;;
12654;SDS011;6392;44.644;11.448;2022-10-31T06:59:21;11.37;;;5.23;;
12654;SDS011;6392;44.644;11.448;2022-10-31T07:01:49;9.70;;;5.13;;
12654;SDS011;6392;44.644;11.448;2022-10-31T07:04:16;11.63;;;5.60;;
12654;SDS011;6392;44.644;11.448;2022-10-31T07:06:43;10.93;;;5.30;;
12654;SDS011;6392;44.644;11.448;2022-10-31T07:09:10;7.90;;;5.03;;
12654;SDS011;6392;44.644;11.448;2022-10-31T07:11:37;5.83;;;4.63;;
12654;SDS011;6392;44.644;11.448;2022-10-31T07:14:06;9.67;;;5.40;;
12654;SDS011;6392;44.644;11.448;2022-10-31T07:16:33;6.73;;;4.87;;
12654;SDS011;6392;44.644;11.448;2022-10-31T07:19:00;9.80;;;4.87;;
12654;SDS011;6392;44.644;11.448;2022-10-31T07:21:27;11.03;;;4.60;;
12654;SDS011;6392;44.644;11.448;2022-10-31T07:23:54;8.47;;;5.10;;
12654;SDS011;6392;44.644;11.448;2022-10-31T07:26:21;8.17;;;4.47;;
12654;SDS011;6392;44.644;11.448;2022-10-31T07:28:48;8.03;;;5.33;;
12654;SDS011;6392;44.644;11.448;2022-10-31T07:31:16;9.33;;;4.87;;
12654;SDS011;6392;44.644;11.448;2022-10-31T07:33:43;7.93;;;4.90;;
12654;SDS011;6392;44.644;11.448;2022-10-31T07:36:10;8.33;;;4.10;;
12654;SDS011;6392;44.644;11.448;2022-10-31T07:38:37;8.93;;;5.33;;
12654;SDS011;6392;44.644;11.448;2022-10-31T07:41:05;6.47;;;4.57;;
12654;SDS011;6392;44.644;11.448;2022-10-31T07:43:32;5.53;;;4.17;;
12654;SDS011;6392;44.644;11.448;2022-10-31T07:45:59;8.70;;;4.93;;
12654;SDS011;6392;44.644;11.448;2022-10-31T07:48:27;7.67;;;3.90;;
12654;SDS011;6392;44.644;11.448;2022-10-31T07:50:54;7.43;;;4.37;;
12654;SDS011;6392;44.644;11.448;2022-10-31T07:53:22;6.80;;;4.10;;
12654;SDS011;6392;44.644;11.448;2022-10-31T07:55:49;9.27;;;4.17;;
12654;SDS011;6392;44.644;11.448;2022-10-31T07:58:16;7.43;;;4.30;;
12654;SDS011;6392;44.644;11.448;2022-10-31T08:00:44;9.13;;;4.13;;
12654;SDS011;6392;44.644;11.448;2022-10-31T08:03:13;8.00;;;4.03;;
12654;SDS011;6392;44.644;11.448;2022-10-31T08:05:43;6.67;;;4.33;;
12654;SDS011;6392;44.644;11.448;2022-10-31T08:08:11;9.93;;;4.20;;
12654;SDS011;6392;44.644;11.448;2022-10-31T08:10:39;9.53;;;4.00;;
12654;SDS011;6392;44.644;11.448;2022-10-31T08:13:07;9.13;;;4.00;;
12654;SDS011;6392;44.644;11.448;2022-10-31T08:15:35;6.53;;;4.23;;
12654;SDS011;6392;44.644;11.448;2022-10-31T08:18:04;7.07;;;4.30;;
12654;SDS011;6392;44.644;11.448;2022-10-31T08:20:31;6.50;;;4.67;;
12654;SDS011;6392;44.644;11.448;2022-10-31T08:23:01;6.83;;;3.70;;
12654;SDS011;6392;44.644;11.448;2022-10-31T08:25:31;7.90;;;5.10;;
12654;SDS011;6392;44.644;11.448;2022-10-31T08:27:59;7.23;;;4.23;;
12654;SDS011;6392;44.644;11.448;2022-10-31T08:30:26;10.87;;;4.43;;
12654;SDS011;6392;44.644;11.448;2022-10-31T08:32:58;9.87;;;4.77;;
12654;SDS011;6392;44.644;11.448;2022-10-31T08:35:27;7.70;;;5.10;;
12654;SDS011;6392;44.644;11.448;2022-10-31T08:37:54;7.40;;;4.93;;
12654;SDS011;6392;44.644;11.448;2022-10-31T08:40:23;11.33;;;4.63;;
12654;SDS011;6392;44.644;11.448;2022-10-31T08:42:55;8.23;;;4.40;;
12654;SDS011;6392;44.644;11.448;2022-10-31T08:45:23;7.83;;;5.37;;
12654;SDS011;6392;44.644;11.448;2022-10-31T08:47:51;7.50;;;4.87;;
12654;SDS011;6392;44.644;11.448;2022-10-31T08:50:18;11.17;;;5.13;;
12654;SDS011;6392;44.644;11.448;2022-10-31T08:52:45;12.03;;;5.73;;
12654;SDS011;6392;44.644;11.448;2022-10-31T08:55:12;8.13;;;5.10;;
12654;SDS011;6392;44.644;11.448;2022-10-31T08:57:41;9.90;;;5.80;;
12654;SDS011;6392;44.644;11.448;2022-10-31T09:00:08;11.43;;;5.73;;
12654;SDS011;6392;44.644;11.448;2022-10-31T09:02:36;14.80;;;6.13;;
12654;SDS011;6392;44.644;11.448;2022-10-31T09:05:03;13.07;;;6.87;;
12654;SDS011;6392;44.644;11.448;2022-10-31T09:07:31;15.80;;;9.00;;
12654;SDS011;6392;44.644;11.448;2022-10-31T09:09:58;12.80;;;7.50;;
12654;SDS011;6392;44.644;11.448;2022-10-31T09:12:25;12.90;;;7.43;;
12654;SDS011;6392;44.644;11.448;2022-10-31T09:14:53;14.80;;;8.13;;
12654;SDS011;6392;44.644;11.448;2022-10-31T09:17:20;16.50;;;7.80;;
12654;SDS011;6392;44.644;11.448;2022-10-31T09:19:47;16.07;;;8.23;;
12654;SDS011;6392;44.644;11.448;2022-10-31T09:22:14;11.53;;;7.70;;
12654;SDS011;6392;44.644;11.448;2022-10-31T09:24:41;13.60;;;7.87;;
12654;SDS011;6392;44.644;11.448;2022-10-31T09:27:08;13.10;;;7.60;;
12654;SDS011;6392;44.644;11.448;2022-10-31T09:29:35;13.13;;;7.30;;
12654;SDS011;6392;44.644;11.448;2022-10-31T09:32:04;15.20;;;8.37;;
12654;SDS011;6392;44.644;11.448;2022-10-31T09:34:31;15.13;;;8.00;;
12654;SDS011;6392;44.644;11.448;2022-10-31T09:36:58;12.60;;;8.43;;
12654;SDS011;6392;44.644;11.448;2022-10-31T09:39:25;17.73;;;9.17;;
12654;SDS011;6392;44.644;11.448;2022-10-31T09:41:58;13.90;;;8.70;;
12654;SDS011;6392;44.644;11.448;2022-10-31T09:44:39;14.87;;;8.53;;
12654;SDS011;6392;44.644;11.448;2022-10-31T09:47:16;19.50;;;8.83;;
12654;SDS011;6392;44.644;11.448;2022-10-31T09:49:52;18.07;;;8.40;;
12654;SDS011;6392;44.644;11.448;2022-10-31T09:52:36;13.97;;;8.87;;
12654;SDS011;6392;44.644;11.448;2022-10-31T09:55:08;16.37;;;8.50;;
12654;SDS011;6392;44.644;11.448;2022-10-31T09:57:41;15.73;;;9.40;;
12654;SDS011;6392;44.644;11.448;2022-10-31T10:00:11;15.97;;;8.90;;
12654;SDS011;6392;44.644;11.448;2022-10-31T10:02:44;14.50;;;8.80;;
12654;SDS011;6392;44.644;11.448;2022-10-31T10:05:17;16.37;;;9.50;;
12654;SDS011;6392;44.644;11.448;2022-10-31T10:07:49;16.20;;;9.00;;
12654;SDS011;6392;44.644;11.448;2022-10-31T10:10:25;19.23;;;9.80;;
12654;SDS011;6392;44.644;11.448;2022-10-31T10:13:17;17.63;;;9.93;;
12654;SDS011;6392;44.644;11.448;2022-10-31T10:15:58;19.07;;;10.63;;
12654;SDS011;6392;44.644;11.448;2022-10-31T10:18:36;17.67;;;9.53;;
12654;SDS011;6392;44.644;11.448;2022-10-31T10:21:13;19.50;;;10.63;;
12654;SDS011;6392;44.644;11.448;2022-10-31T10:23:53;17.70;;;10.00;;
12654;SDS011;6392;44.644;11.448;2022-10-31T10:26:28;22.40;;;10.93;;
12654;SDS011;6392;44.644;11.448;2022-10-31T10:29:01;18.10;;;9.50;;
12654;SDS011;6392;44.644;11.448;2022-10-31T10:31:35;18.43;;;9.23;;
12654;SDS011;6392;44.644;11.448;2022-10-31T10:34:10;20.00;;;11.10;;
12654;SDS011;6392;44.644;11.448;2022-10-31T10:36:44;20.60;;;10.80;;
12654;SDS011;6392;44.644;11.448;2022-10-31T10:39:17;19.07;;;9.70;;
12654;SDS011;6392;44.644;11.448;2022-10-31T10:41:47;16.47;;;9.73;;
12654;SDS011;6392;44.644;11.448;2022-10-31T10:44:29;16.40;;;9.47;;
12654;SDS011;6392;44.644;11.448;2022-10-31T10:47:14;22.10;;;9.67;;
12654;SDS011;6392;44.644;11.448;2022-10-31T10:50:00;19.43;;;8.30;;
12654;SDS011;6392;44.644;11.448;2022-10-31T10:52:35;6.00;;;3.97;;
12654;SDS011;6392;44.644;11.448;2022-10-31T10:55:13;18.00;;;9.17;;
12654;SDS011;6392;44.644;11.448;2022-10-31T10:57:50;15.33;;;7.83;;
12654;SDS011;6392;44.644;11.448;2022-10-31T11:00:23;13.80;;;7.67;;
12654;SDS011;6392;44.644;11.448;2022-10-31T11:02:52;18.03;;;9.13;;
12654;SDS011;6392;44.644;11.448;2022-10-31T11:05:24;18.30;;;9.33;;
12654;SDS011;6392;44.644;11.448;2022-10-31T11:07:56;15.00;;;8.90;;
12654;SDS011;6392;44.644;11.448;2022-10-31T11:10:23;17.43;;;8.33;;
12654;SDS011;6392;44.644;11.448;2022-10-31T11:12:58;21.60;;;9.17;;
12654;SDS011;6392;44.644;11.448;2022-10-31T11:15:30;16.23;;;8.13;;
12654;SDS011;6392;44.644;11.448;2022-10-31T11:17:59;17.60;;;8.60;;
12654;SDS011;6392;44.644;11.448;2022-10-31T11:20:30;16.23;;;7.17;;
12654;SDS011;6392;44.644;11.448;2022-10-31T11:23:01;15.53;;;7.90;;
12654;SDS011;6392;44.644;11.448;2022-10-31T11:25:30;16.53;;;7.77;;
12654;SDS011;6392;44.644;11.448;2022-10-31T11:28:01;19.57;;;8.80;;
12654;SDS011;6392;44.644;11.448;2022-10-31T11:30:30;8.27;;;5.03;;
12654;SDS011;6392;44.644;11.448;2022-10-31T11:33:02;12.73;;;6.50;;
12654;SDS011;6392;44.644;11.448;2022-10-31T11:35:31;15.07;;;8.33;;
12654;SDS011;6392;44.644;11.448;2022-10-31T11:37:58;16.47;;;7.47;;
12654;SDS011;6392;44.644;11.448;2022-10-31T11:40:27;12.57;;;7.27;;
12654;SDS011;6392;44.644;11.448;2022-10-31T11:42:54;11.33;;;6.50;;
12654;SDS011;6392;44.644;11.448;2022-10-31T11:45:28;17.37;;;7.63;;
12654;SDS011;6392;44.644;11.448;2022-10-31T11:47:58;9.93;;;5.90;;
12654;SDS011;6392;44.644;11.448;2022-10-31T11:50:27;12.17;;;6.20;;
12654;SDS011;6392;44.644;11.448;2022-10-31T11:53:00;13.97;;;5.60;;
12654;SDS011;6392;44.644;11.448;2022-10-31T11:55:32;12.43;;;7.30;;
12654;SDS011;6392;44.644;11.448;2022-10-31T11:58:01;12.20;;;6.20;;
12654;SDS011;6392;44.644;11.448;2022-10-31T12:00:30;14.30;;;6.43;;
12654;SDS011;6392;44.644;11.448;2022-10-31T12:03:10;11.77;;;7.33;;
12654;SDS011;6392;44.644;11.448;2022-10-31T12:05:41;6.27;;;3.53;;
12654;SDS011;6392;44.644;11.448;2022-10-31T12:08:11;15.27;;;7.00;;
12654;SDS011;6392;44.644;11.448;2022-10-31T12:10:40;13.17;;;6.37;;
12654;SDS011;6392;44.644;11.448;2022-10-31T12:13:21;12.37;;;6.70;;
12654;SDS011;6392;44.644;11.448;2022-10-31T12:15:59;10.80;;;6.43;;
12654;SDS011;6392;44.644;11.448;2022-10-31T12:18:37;11.30;;;6.30;;
12654;SDS011;6392;44.644;11.448;2022-10-31T12:21:18;8.17;;;3.40;;
12654;SDS011;6392;44.644;11.448;2022-10-31T12:23:55;10.17;;;6.17;;
12654;SDS011;6392;44.644;11.448;2022-10-31T12:26:32;11.30;;;5.33;;
12654;SDS011;6392;44.644;11.448;2022-10-31T12:29:09;16.70;;;6.07;;
12654;SDS011;6392;44.644;11.448;2022-10-31T12:31:48;17.03;;;6.23;;
12654;SDS011;6392;44.644;11.448;2022-10-31T12:34:30;6.03;;;3.90;;
12654;SDS011;6392;44.644;11.448;2022-10-31T12:37:18;11.83;;;4.97;;
12654;SDS011;6392;44.644;11.448;2022-10-31T12:39:58;5.87;;;3.27;;
12654;SDS011;6392;44.644;11.448;2022-10-31T12:42:39;12.93;;;5.83;;
12654;SDS011;6392;44.644;11.448;2022-10-31T12:45:28;5.37;;;2.70;;
12654;SDS011;6392;44.644;11.448;2022-10-31T12:48:20;9.93;;;4.83;;
12654;SDS011;6392;44.644;11.448;2022-10-31T12:51:02;15.53;;;5.03;;
12654;SDS011;6392;44.644;11.448;2022-10-31T12:53:43;10.57;;;5.17;;
12654;SDS011;6392;44.644;11.448;2022-10-31T12:56:22;8.80;;;4.43;;
12654;SDS011;6392;44.644;11.448;2022-10-31T12:58:58;14.63;;;5.27;;
12654;SDS011;6392;44.644;11.448;2022-10-31T13:01:29;13.77;;;5.73;;
12654;SDS011;6392;44.644;11.448;2022-10-31T13:04:02;6.43;;;3.30;;
12654;SDS011;6392;44.644;11.448;2022-10-31T13:06:33;7.63;;;4.57;;
12654;SDS011;6392;44.644;11.448;2022-10-31T13:09:07;10.00;;;4.50;;
12654;SDS011;6392;44.644;11.448;2022-10-31T13:11:39;7.57;;;3.33;;
12654;SDS011;6392;44.644;11.448;2022-10-31T13:14:11;7.80;;;4.07;;
12654;SDS011;6392;44.644;11.448;2022-10-31T13:16:45;10.53;;;4.47;;
12654;SDS011;6392;44.644;11.448;2022-10-31T13:19:14;12.53;;;4.67;;
12654;SDS011;6392;44.644;11.448;2022-10-31T13:21:47;9.77;;;4.33;;
12654;SDS011;6392;44.644;11.448;2022-10-31T13:24:23;8.70;;;3.60;;
12654;SDS011;6392;44.644;11.448;2022-10-31T13:26:57;7.83;;;4.40;;
12654;SDS011;6392;44.644;11.448;2022-10-31T13:29:28;8.83;;;4.27;;
12654;SDS011;6392;44.644;11.448;2022-10-31T13:31:59;3.67;;;2.80;;
12654;SDS011;6392;44.644;11.448;2022-10-31T13:34:31;12.20;;;3.80;;
12654;SDS011;6392;44.644;11.448;2022-10-31T13:37:05;3.13;;;2.30;;
12654;SDS011;6392;44.644;11.448;2022-10-31T13:39:47;8.20;;;3.57;;
12654;SDS011;6392;44.644;11.448;2022-10-31T13:42:23;10.40;;;3.73;;
12654;SDS011;6392;44.644;11.448;2022-10-31T13:45:06;10.90;;;4.57;;
12654;SDS011;6392;44.644;11.448;2022-10-31T13:47:37;7.93;;;3.63;;
12654;SDS011;6392;44.644;11.448;2022-10-31T13:50:19;4.47;;;2.70;;
12654;SDS011;6392;44.644;11.448;2022-10-31T13:52:47;4.90;;;3.00;;
12654;SDS011;6392;44.644;11.448;2022-10-31T13:58:19;5.90;;;3.13;;
12654;SDS011;6392;44.644;11.448;2022-10-31T14:01:12;11.70;;;4.10;;
12654;SDS011;6392;44.644;11.448;2022-10-31T14:03:44;9.67;;;3.83;;
12654;SDS011;6392;44.644;11.448;2022-10-31T14:06:13;6.47;;;3.03;;
12654;SDS011;6392;44.644;11.448;2022-10-31T14:08:46;3.97;;;2.53;;
12654;SDS011;6392;44.644;11.448;2022-10-31T14:11:26;3.57;;;2.87;;
12654;SDS011;6392;44.644;11.448;2022-10-31T14:13:55;4.00;;;2.43;;
12654;SDS011;6392;44.644;11.448;2022-10-31T14:16:25;5.97;;;3.20;;
12654;SDS011;6392;44.644;11.448;2022-10-31T14:18:58;4.10;;;3.00;;
12654;SDS011;6392;44.644;11.448;2022-10-31T14:21:28;3.43;;;2.50;;
12654;SDS011;6392;44.644;11.448;2022-10-31T14:23:57;4.60;;;2.50;;
12654;SDS011;6392;44.644;11.448;2022-10-31T14:26:32;3.13;;;2.37;;
12654;SDS011;6392;44.644;11.448;2022-10-31T14:29:02;3.80;;;2.40;;
12654;SDS011;6392;44.644;11.448;2022-10-31T14:31:58;4.30;;;2.60;;
12654;SDS011;6392;44.644;11.448;2022-10-31T14:34:51;3.67;;;2.60;;
12654;SDS011;6392;44.644;11.448;2022-10-31T14:40:18;4.73;;;2.90;;
12654;SDS011;6392;44.644;11.448;2022-10-31T14:43:07;4.80;;;2.60;;
12654;SDS011;6392;44.644;11.448;2022-10-31T14:45:55;4.20;;;2.30;;
12654;SDS011;6392;44.644;11.448;2022-10-31T14:48:39;3.37;;;2.47;;
12654;SDS011;6392;44.644;11.448;2022-10-31T14:51:19;3.20;;;2.57;;
12654;SDS011;6392;44.644;11.448;2022-10-31T14:53:48;4.40;;;3.00;;
12654;SDS011;6392;44.644;11.448;2022-10-31T14:56:19;5.20;;;2.77;;
12654;SDS011;6392;44.644;11.448;2022-10-31T14:58:57;2.87;;;2.20;;
12654;SDS011;6392;44.644;11.448;2022-10-31T15:01:27;3.27;;;2.57;;
12654;SDS011;6392;44.644;11.448;2022-10-31T15:03:57;3.33;;;2.90;;
12654;SDS011;6392;44.644;11.448;2022-10-31T15:06:30;6.43;;;3.10;;
12654;SDS011;6392;44.644;11.448;2022-10-31T15:09:05;3.63;;;2.17;;
12654;SDS011;6392;44.644;11.448;2022-10-31T15:11:36;5.73;;;2.67;;
12654;SDS011;6392;44.644;11.448;2022-10-31T15:14:19;4.30;;;2.47;;
12654;SDS011;6392;44.644;11.448;2022-10-31T15:16:49;2.93;;;2.50;;